createdAt,value
2018-12-24T00:02:07.213Z,20.30
2018-12-24T00:04:33.283Z,20.30
2018-12-24T00:06:59.957Z,20.20
2018-12-24T00:09:26.145Z,20.20
2018-12-24T00:11:52.202Z,20.30
2018-12-24T00:14:18.296Z,20.20
2018-12-24T00:16:44.470Z,20.20
2018-12-24T00:19:10.549Z,20.20
2018-12-24T00:21:36.631Z,20.20
2018-12-24T00:24:02.810Z,20.20
2018-12-24T00:26:28.965Z,20.20
2018-12-24T00:28:55.022Z,20.20
2018-12-24T00:31:21.123Z,20.20
2018-12-24T00:33:47.284Z,20.20
2018-12-24T00:36:13.467Z,20.20
2018-12-24T00:38:39.551Z,20.20
2018-12-24T00:41:05.631Z,20.20
2018-12-24T00:43:31.703Z,20.20
2018-12-24T00:45:57.779Z,20.20
2018-12-24T00:48:23.865Z,20.20
2018-12-24T00:50:49.959Z,20.20
2018-12-24T00:53:16.031Z,20.20
2018-12-24T00:55:42.086Z,20.20
2018-12-24T00:58:08.163Z,20.20
2018-12-24T01:00:34.246Z,20.20
2018-12-24T01:03:00.312Z,20.20
2018-12-24T01:05:26.413Z,20.20
2018-12-24T01:07:52.585Z,20.20
2018-12-24T01:10:18.643Z,20.20
2018-12-24T01:12:44.697Z,20.20
2018-12-24T01:15:11.117Z,20.20
2018-12-24T01:17:37.276Z,20.20
2018-12-24T01:20:03.344Z,20.20
2018-12-24T01:22:29.437Z,20.20
2018-12-24T01:24:55.571Z,20.20
2018-12-24T01:27:21.685Z,20.10
2018-12-24T01:29:47.885Z,20.10
2018-12-24T01:32:13.967Z,20.10
2018-12-24T01:34:40.033Z,20.10
2018-12-24T01:37:06.119Z,20.20
2018-12-24T01:39:32.200Z,20.30
2018-12-24T01:41:58.345Z,20.20
2018-12-24T01:44:24.421Z,20.10
2018-12-24T01:46:50.534Z,20.10
2018-12-24T01:49:16.641Z,20.20
2018-12-24T01:51:42.793Z,20.20
2018-12-24T01:54:08.872Z,20.10
2018-12-24T01:56:34.948Z,20.20
2018-12-24T01:59:01.039Z,20.20
2018-12-24T02:01:27.186Z,20.20
2018-12-24T02:03:53.274Z,20.20
2018-12-24T02:06:19.362Z,20.20
2018-12-24T02:08:45.433Z,20.20
2018-12-24T02:11:11.500Z,20.20
2018-12-24T02:13:37.581Z,20.20
2018-12-24T02:16:03.672Z,20.20
2018-12-24T02:18:29.718Z,20.20
2018-12-24T02:20:55.804Z,20.20
2018-12-24T02:23:21.890Z,20.30
2018-12-24T02:25:48.046Z,20.20
2018-12-24T02:28:14.124Z,20.20
2018-12-24T02:30:40.209Z,20.20
2018-12-24T02:33:06.384Z,20.20
2018-12-24T02:35:32.461Z,20.20
2018-12-24T02:37:58.527Z,20.20
2018-12-24T02:40:24.599Z,20.20
2018-12-24T02:42:52.482Z,20.20
2018-12-24T02:45:18.749Z,20.20
2018-12-24T02:47:44.916Z,20.20
2018-12-24T02:50:11.064Z,20.20
2018-12-24T02:52:37.140Z,20.20
2018-12-24T02:55:03.198Z,20.20
2018-12-24T02:57:29.296Z,20.20
2018-12-24T02:59:55.432Z,20.10
2018-12-24T03:02:21.490Z,20.10
2018-12-24T03:04:47.561Z,20.10
2018-12-24T03:07:13.988Z,20.10
2018-12-24T03:09:40.024Z,20.10
2018-12-24T03:12:06.091Z,20.10
2018-12-24T03:14:32.160Z,20.10
2018-12-24T03:16:58.266Z,20.10
2018-12-24T03:19:24.340Z,20.10
2018-12-24T03:21:50.425Z,20.10
2018-12-24T03:24:16.490Z,20.10
2018-12-24T03:26:42.551Z,20.10
2018-12-24T03:29:08.632Z,20.10
2018-12-24T03:31:34.715Z,20.10
2018-12-24T03:34:00.884Z,20.10
2018-12-24T03:36:27.063Z,20.10
2018-12-24T03:38:53.222Z,20.00
2018-12-24T03:41:19.311Z,20.00
2018-12-24T03:43:45.563Z,20.00
2018-12-24T03:46:11.624Z,20.00
2018-12-24T03:48:37.704Z,20.00
2018-12-24T03:51:03.791Z,20.00
2018-12-24T03:53:29.863Z,20.00
2018-12-24T03:55:55.919Z,20.00
2018-12-24T03:58:22.039Z,20.00
2018-12-24T04:00:48.107Z,20.00
2018-12-24T04:03:14.178Z,20.00
2018-12-24T04:05:40.236Z,20.00
2018-12-24T04:08:06.303Z,20.00
2018-12-24T04:10:32.351Z,20.00
2018-12-24T04:12:58.427Z,20.00
2018-12-24T04:15:24.502Z,20.00
2018-12-24T04:17:50.559Z,20.00
2018-12-24T04:20:16.615Z,19.80
2018-12-24T04:22:42.683Z,20.00
2018-12-24T04:25:08.756Z,20.00
2018-12-24T04:27:41.736Z,20.00
2018-12-24T04:30:02.796Z,20.00
2018-12-24T04:32:28.855Z,20.00
2018-12-24T04:34:54.908Z,20.00
2018-12-24T04:37:21.585Z,20.00
2018-12-24T04:39:47.666Z,20.10
2018-12-24T04:42:13.815Z,20.10
2018-12-24T04:44:39.981Z,20.10
2018-12-24T04:47:06.147Z,20.10
2018-12-24T04:49:32.213Z,20.10
2018-12-24T04:51:58.281Z,20.10
2018-12-24T04:54:24.349Z,20.10
2018-12-24T04:56:50.513Z,20.10
2018-12-24T04:59:16.579Z,20.10
2018-12-24T05:01:42.673Z,20.10
2018-12-24T05:04:08.740Z,20.10
2018-12-24T05:06:34.827Z,20.10
2018-12-24T05:09:00.881Z,20.10
2018-12-24T05:11:26.977Z,20.10
2018-12-24T05:13:53.047Z,20.10
2018-12-24T05:16:19.143Z,20.10
2018-12-24T05:18:45.222Z,20.10
2018-12-24T05:21:11.269Z,20.10
2018-12-24T05:23:37.351Z,20.10
2018-12-24T05:26:03.529Z,20.10
2018-12-24T05:28:29.598Z,20.10
2018-12-24T05:30:55.763Z,20.00
2018-12-24T05:33:21.829Z,20.10
2018-12-24T05:35:47.883Z,20.10
2018-12-24T05:38:13.952Z,20.10
2018-12-24T05:40:40.010Z,20.10
2018-12-24T05:43:06.091Z,20.10
2018-12-24T05:45:32.168Z,20.10
2018-12-24T05:47:58.224Z,20.10
2018-12-24T05:50:24.285Z,20.10
2018-12-24T05:52:50.343Z,20.00
2018-12-24T05:55:16.402Z,20.10
2018-12-24T05:57:42.469Z,20.10
2018-12-24T06:00:08.632Z,20.10
2018-12-24T06:02:34.693Z,20.10
2018-12-24T06:05:00.954Z,20.10
2018-12-24T06:07:27.003Z,20.10
2018-12-24T06:09:53.075Z,20.10
2018-12-24T06:12:19.139Z,20.10
2018-12-24T06:14:45.208Z,20.10
2018-12-24T06:17:13.009Z,20.10
2018-12-24T06:19:39.093Z,20.20
2018-12-24T06:22:05.247Z,20.10
2018-12-24T06:24:31.310Z,20.10
2018-12-24T06:26:57.369Z,20.10
2018-12-24T06:29:23.465Z,20.10
2018-12-24T06:31:49.535Z,20.10
2018-12-24T06:34:15.619Z,20.10
2018-12-24T06:36:41.699Z,20.10
2018-12-24T06:39:07.744Z,20.10
2018-12-24T06:41:33.863Z,20.10
2018-12-24T06:44:06.682Z,20.10
2018-12-24T06:46:27.909Z,20.00
2018-12-24T06:48:53.967Z,20.00
2018-12-24T06:51:20.059Z,20.00
2018-12-24T06:53:46.131Z,20.00
2018-12-24T06:56:12.205Z,20.00
2018-12-24T06:58:38.289Z,20.00
2018-12-24T07:01:04.379Z,20.00
2018-12-24T07:03:30.459Z,20.00
2018-12-24T07:05:56.539Z,20.00
2018-12-24T07:08:22.601Z,20.00
2018-12-24T07:10:48.665Z,20.00
2018-12-24T07:13:14.785Z,20.00
2018-12-24T07:15:40.862Z,20.00
2018-12-24T07:18:06.937Z,20.00
2018-12-24T07:20:32.986Z,20.00
2018-12-24T07:22:59.074Z,20.00
2018-12-24T07:25:25.148Z,20.00
2018-12-24T07:27:51.213Z,20.00
2018-12-24T07:30:17.279Z,20.00
2018-12-24T07:32:43.367Z,20.00
2018-12-24T07:35:09.415Z,20.00
2018-12-24T07:37:35.475Z,20.00
2018-12-24T07:40:01.555Z,20.00
2018-12-24T07:42:27.625Z,20.00
2018-12-24T07:44:53.719Z,20.00
2018-12-24T07:47:20.145Z,20.00
2018-12-24T07:49:46.205Z,20.00
2018-12-24T07:52:12.274Z,20.00
2018-12-24T07:54:38.361Z,19.90
2018-12-24T07:57:04.433Z,19.90
2018-12-24T07:59:30.489Z,19.90
2018-12-24T08:01:56.537Z,19.90
2018-12-24T08:04:22.617Z,19.90
2018-12-24T08:06:48.699Z,19.90
2018-12-24T08:09:15.257Z,19.90
2018-12-24T08:11:41.377Z,19.90
2018-12-24T08:14:07.526Z,19.90
2018-12-24T08:16:33.578Z,19.90
2018-12-24T08:18:59.677Z,19.90
2018-12-24T08:21:25.854Z,19.90
2018-12-24T08:23:52.011Z,19.90
2018-12-24T08:26:18.086Z,19.80
2018-12-24T08:28:44.156Z,19.90
2018-12-24T08:31:10.244Z,19.90
2018-12-24T08:33:36.330Z,19.90
2018-12-24T08:36:02.502Z,19.90
2018-12-24T08:38:28.576Z,19.90
2018-12-24T08:40:54.640Z,19.90
2018-12-24T08:43:20.700Z,20.00
2018-12-24T08:45:46.785Z,20.00
2018-12-24T08:48:12.856Z,20.00
2018-12-24T08:50:38.905Z,20.00
2018-12-24T08:53:04.986Z,19.90
2018-12-24T08:55:31.052Z,20.00
2018-12-24T08:57:57.104Z,20.00
2018-12-24T09:00:23.191Z,20.00
2018-12-24T09:02:49.240Z,20.00
2018-12-24T09:05:15.326Z,20.00
2018-12-24T09:07:41.492Z,20.00
2018-12-24T09:10:07.554Z,20.00
2018-12-24T09:12:33.630Z,20.00
2018-12-24T09:14:59.712Z,19.90
2018-12-24T09:17:25.772Z,20.00
2018-12-24T09:19:51.854Z,20.00
2018-12-24T09:22:17.937Z,20.00
2018-12-24T09:24:44.034Z,20.00
2018-12-24T09:27:10.188Z,19.90
2018-12-24T09:29:36.257Z,19.90
2018-12-24T09:32:02.325Z,19.90
2018-12-24T09:34:28.404Z,19.90
2018-12-24T09:36:54.461Z,19.90
2018-12-24T09:39:20.538Z,19.90
2018-12-24T09:41:46.621Z,19.90
2018-12-24T09:44:12.702Z,19.90
2018-12-24T09:46:38.775Z,19.90
2018-12-24T09:49:04.869Z,19.90
2018-12-24T09:51:30.940Z,19.90
2018-12-24T09:53:56.997Z,19.90
2018-12-24T09:56:23.078Z,19.90
2018-12-24T09:58:49.148Z,19.90
2018-12-24T10:01:15.249Z,19.90
2018-12-24T10:03:41.301Z,19.90
2018-12-24T10:06:07.371Z,19.90
2018-12-24T10:08:33.516Z,19.90
2018-12-24T10:10:59.686Z,19.90
2018-12-24T10:13:25.754Z,19.90
2018-12-24T10:15:51.874Z,19.90
2018-12-24T10:18:18.025Z,19.90
2018-12-24T10:20:44.112Z,19.90
2018-12-24T10:23:10.168Z,19.90
2018-12-24T10:25:36.242Z,19.90
2018-12-24T10:28:02.323Z,19.90
2018-12-24T10:30:28.398Z,19.90
2018-12-24T10:32:54.473Z,19.90
2018-12-24T10:35:20.528Z,19.90
2018-12-24T10:37:46.598Z,19.90
2018-12-24T10:40:12.660Z,19.90
2018-12-24T10:42:38.719Z,19.90
2018-12-24T10:45:04.815Z,19.90
2018-12-24T10:47:30.878Z,19.90
2018-12-24T10:49:56.956Z,19.90
2018-12-24T10:52:23.027Z,19.90
2018-12-24T10:54:49.128Z,19.90
2018-12-24T10:57:16.111Z,19.90
2018-12-24T10:59:42.174Z,19.60
2018-12-24T11:02:08.220Z,19.90
2018-12-24T11:04:34.279Z,19.90
2018-12-24T11:07:00.730Z,19.90
2018-12-24T11:09:26.813Z,19.90
2018-12-24T11:11:52.882Z,19.90
2018-12-24T11:14:18.948Z,19.90
2018-12-24T11:16:45.048Z,19.90
2018-12-24T11:19:11.214Z,19.40
2018-12-24T11:21:37.286Z,19.90
2018-12-24T11:24:03.350Z,19.90
2018-12-24T11:26:29.414Z,19.90
2018-12-24T11:28:55.484Z,19.90
2018-12-24T11:31:21.586Z,19.90
2018-12-24T11:33:47.657Z,19.90
2018-12-24T11:36:13.737Z,19.90
2018-12-24T11:38:39.916Z,19.90
2018-12-24T11:41:06.004Z,19.80
2018-12-24T11:43:32.195Z,19.80
2018-12-24T11:45:58.345Z,19.80
2018-12-24T11:48:24.423Z,19.90
2018-12-24T11:50:50.504Z,19.90
2018-12-24T11:53:16.590Z,19.90
2018-12-24T11:55:42.647Z,19.90
2018-12-24T11:58:13.346Z,19.90
2018-12-24T12:00:36.705Z,19.90
2018-12-24T12:03:02.870Z,19.90
2018-12-24T12:05:28.943Z,19.90
2018-12-24T12:07:55.030Z,19.90
2018-12-24T12:10:21.103Z,19.90
2018-12-24T12:12:47.260Z,19.90
2018-12-24T12:15:13.338Z,19.80
2018-12-24T12:17:39.414Z,19.80
2018-12-24T12:20:05.465Z,19.80
2018-12-24T12:22:31.533Z,19.90
2018-12-24T12:24:57.603Z,19.90
2018-12-24T12:27:23.832Z,19.80
2018-12-24T12:29:49.977Z,19.90
2018-12-24T12:32:16.034Z,19.90
2018-12-24T12:34:42.110Z,19.80
2018-12-24T12:37:08.161Z,19.80
2018-12-24T12:39:34.218Z,19.80
2018-12-24T12:42:00.291Z,19.80
2018-12-24T12:44:26.349Z,19.90
2018-12-24T12:46:52.442Z,19.80
2018-12-24T12:49:18.511Z,19.80
2018-12-24T12:51:44.571Z,19.80
2018-12-24T12:54:10.644Z,19.80
2018-12-24T12:56:36.717Z,19.80
2018-12-24T12:59:02.793Z,19.80
2018-12-24T13:01:28.965Z,19.80
2018-12-24T13:03:55.063Z,19.80
2018-12-24T13:06:21.124Z,19.80
2018-12-24T13:08:47.191Z,19.80
2018-12-24T13:11:13.349Z,19.80
2018-12-24T13:13:39.441Z,19.80
2018-12-24T13:16:05.524Z,19.80
2018-12-24T13:18:31.621Z,19.90
2018-12-24T13:20:57.700Z,19.80
2018-12-24T13:23:23.783Z,19.80
2018-12-24T13:25:49.956Z,19.90
2018-12-24T13:28:16.101Z,19.80
2018-12-24T13:30:42.197Z,19.80
2018-12-24T13:33:08.267Z,19.80
2018-12-24T13:35:34.344Z,19.80
2018-12-24T13:38:00.421Z,19.80
2018-12-24T13:40:26.511Z,19.80
2018-12-24T13:42:52.685Z,19.80
2018-12-24T13:45:18.775Z,19.80
2018-12-24T13:47:44.961Z,19.70
2018-12-24T13:50:11.033Z,19.80
2018-12-24T13:52:37.159Z,19.80
2018-12-24T13:55:03.225Z,19.70
2018-12-24T13:57:29.277Z,19.80
2018-12-24T13:59:55.346Z,19.70
2018-12-24T14:02:21.421Z,19.70
2018-12-24T14:04:47.588Z,19.70
2018-12-24T14:07:53.898Z,19.70
2018-12-24T14:10:19.886Z,19.70
2018-12-24T14:12:45.844Z,19.30
2018-12-24T14:15:11.794Z,19.80
2018-12-24T14:17:37.762Z,19.70
2018-12-24T14:20:03.735Z,19.70
2018-12-24T14:22:29.790Z,19.80
2018-12-24T14:24:55.758Z,19.80
2018-12-24T14:27:21.709Z,19.80
2018-12-24T14:29:47.649Z,19.80
2018-12-24T14:32:13.588Z,19.80
2018-12-24T14:34:39.547Z,19.80
2018-12-24T14:37:09.912Z,19.70
2018-12-24T14:39:35.862Z,19.80
2018-12-24T14:42:01.821Z,19.80
2018-12-24T14:44:27.971Z,19.70
2018-12-24T14:46:53.905Z,19.70
2018-12-24T14:49:19.868Z,19.70
2018-12-24T14:51:45.842Z,19.80
2018-12-24T14:54:11.774Z,19.80
2018-12-24T14:56:37.722Z,19.80
2018-12-24T14:59:03.677Z,19.80
2018-12-24T15:01:29.625Z,19.80
2018-12-24T15:03:55.589Z,19.70
2018-12-24T15:06:21.571Z,19.70
2018-12-24T15:08:47.644Z,19.70
2018-12-24T15:11:13.602Z,19.70
2018-12-24T15:13:39.664Z,19.70
2018-12-24T15:16:05.699Z,19.70
2018-12-24T15:18:31.674Z,19.70
2018-12-24T15:20:57.717Z,19.70
2018-12-24T15:23:23.661Z,19.70
2018-12-24T15:25:49.608Z,19.70
2018-12-24T15:28:15.556Z,19.70
2018-12-24T15:30:41.531Z,19.70
2018-12-24T15:33:07.500Z,19.70
2018-12-24T15:35:33.452Z,19.70
2018-12-24T15:37:59.417Z,19.70
2018-12-24T15:40:25.420Z,19.70
2018-12-24T15:42:51.466Z,19.70
2018-12-24T15:45:17.401Z,19.70
2018-12-24T15:47:43.363Z,19.70
2018-12-24T15:50:09.329Z,19.70
2018-12-24T15:52:35.296Z,19.70
2018-12-24T15:55:01.244Z,19.70
2018-12-24T15:57:28.078Z,19.70
2018-12-24T15:59:54.049Z,19.70
2018-12-24T16:02:20.078Z,19.70
2018-12-24T16:04:46.056Z,19.70
2018-12-24T16:07:12.767Z,19.60
2018-12-24T16:09:38.876Z,19.60
2018-12-24T16:12:04.828Z,19.60
2018-12-24T16:14:30.793Z,19.70
2018-12-24T16:16:56.738Z,19.60
2018-12-24T16:19:22.797Z,19.60
2018-12-24T16:21:48.780Z,19.70
2018-12-24T16:24:15.203Z,19.80
2018-12-24T16:26:41.280Z,19.70
2018-12-24T16:29:07.249Z,19.70
2018-12-24T16:31:33.331Z,19.70
2018-12-24T16:33:59.404Z,19.70
2018-12-24T16:36:25.342Z,19.70
2018-12-24T16:38:51.345Z,19.60
2018-12-24T16:41:17.416Z,19.70
2018-12-24T16:43:43.480Z,19.60
2018-12-24T16:46:09.523Z,19.60
2018-12-24T16:48:35.497Z,19.60
2018-12-24T16:51:01.436Z,19.60
2018-12-24T16:53:27.391Z,19.70
2018-12-24T16:55:53.335Z,19.60
2018-12-24T16:58:19.303Z,19.70
2018-12-24T17:00:45.264Z,19.70
2018-12-24T17:03:11.207Z,19.70
2018-12-24T17:05:37.157Z,19.60
2018-12-24T17:08:03.089Z,19.60
2018-12-24T17:10:29.049Z,19.60
2018-12-24T17:12:55.002Z,19.60
2018-12-24T17:15:20.950Z,19.60
2018-12-24T17:17:46.894Z,19.60
2018-12-24T17:20:12.854Z,19.60
2018-12-24T17:22:38.781Z,19.70
2018-12-24T17:25:04.722Z,19.70
2018-12-24T17:27:30.685Z,19.60
2018-12-24T17:29:56.740Z,19.70
2018-12-24T17:32:22.697Z,19.60
2018-12-24T17:34:48.638Z,19.60
2018-12-24T17:37:15.149Z,19.70
2018-12-24T17:39:41.119Z,19.60
2018-12-24T17:42:07.173Z,19.60
2018-12-24T17:44:33.241Z,19.60
2018-12-24T17:46:59.169Z,19.60
2018-12-24T17:49:25.119Z,19.60
2018-12-24T17:51:51.095Z,19.70
2018-12-24T17:54:17.117Z,19.70
2018-12-24T17:56:43.074Z,19.70
2018-12-24T17:59:09.038Z,19.70
2018-12-24T18:01:35.022Z,19.70
2018-12-24T18:04:01.095Z,19.70
2018-12-24T18:06:27.029Z,19.70
2018-12-24T18:08:52.954Z,19.70
2018-12-24T18:11:18.936Z,19.70
2018-12-24T18:13:44.892Z,19.60
2018-12-24T18:16:10.942Z,19.70
2018-12-24T18:18:36.907Z,19.60
2018-12-24T18:21:02.852Z,19.70
2018-12-24T18:23:28.815Z,19.60
2018-12-24T18:25:54.779Z,19.60
2018-12-24T18:28:20.725Z,19.60
2018-12-24T18:30:46.691Z,19.60
2018-12-24T18:33:12.644Z,19.60
2018-12-24T18:35:38.608Z,19.60
2018-12-24T18:38:04.557Z,19.60
2018-12-24T18:40:30.496Z,19.60
2018-12-24T18:42:56.436Z,19.60
2018-12-24T18:45:22.416Z,19.60
2018-12-24T18:47:48.346Z,19.60
2018-12-24T18:50:14.316Z,19.60
2018-12-24T18:52:40.290Z,19.60
2018-12-24T18:55:06.239Z,19.60
2018-12-24T18:57:32.204Z,19.60
2018-12-24T18:59:58.248Z,19.60
2018-12-24T19:02:24.220Z,19.60
2018-12-24T19:04:50.255Z,19.60
2018-12-24T19:07:16.295Z,19.60
2018-12-24T19:09:42.292Z,19.60
2018-12-24T19:12:08.320Z,19.60
2018-12-24T19:14:34.275Z,19.60
2018-12-24T19:17:00.217Z,19.60
2018-12-24T19:19:26.152Z,19.60
2018-12-24T19:21:52.088Z,19.60
2018-12-24T19:24:18.032Z,19.60
2018-12-24T19:26:44.172Z,19.60
2018-12-24T19:29:10.117Z,19.60
2018-12-24T19:31:36.160Z,19.60
2018-12-24T19:34:02.104Z,19.60
2018-12-24T19:36:28.279Z,19.60
2018-12-24T19:38:54.332Z,19.60
2018-12-24T19:41:20.270Z,19.50
2018-12-24T19:43:46.223Z,19.60
2018-12-24T19:46:12.179Z,19.50
2018-12-24T19:48:38.222Z,19.60
2018-12-24T19:51:04.163Z,19.60
2018-12-24T19:53:30.143Z,19.60
2018-12-24T19:55:56.111Z,19.50
2018-12-24T19:58:22.095Z,19.50
2018-12-24T20:00:48.051Z,19.60
2018-12-24T20:03:13.993Z,19.60
2018-12-24T20:05:39.964Z,19.60
2018-12-24T20:08:06.016Z,19.60
2018-12-24T20:10:31.975Z,19.60
2018-12-24T20:12:57.902Z,19.50
2018-12-24T20:15:23.856Z,19.50
2018-12-24T20:17:58.078Z,19.50
2018-12-24T20:20:17.690Z,19.60
2018-12-24T20:22:43.718Z,19.50
2018-12-24T20:25:09.679Z,19.60
2018-12-24T20:27:35.706Z,19.50
2018-12-24T20:30:01.685Z,19.50
2018-12-24T20:32:27.709Z,19.50
2018-12-24T20:34:53.672Z,19.50
2018-12-24T20:37:19.608Z,19.50
2018-12-24T20:39:45.558Z,19.50
2018-12-24T20:42:11.514Z,19.50
2018-12-24T20:44:37.479Z,19.50
2018-12-24T20:47:04.004Z,19.50
2018-12-24T20:49:29.973Z,19.50
2018-12-24T20:51:55.932Z,19.50
2018-12-24T20:54:21.881Z,19.50
2018-12-24T20:56:48.306Z,19.50
2018-12-24T20:59:14.248Z,19.50
2018-12-24T21:01:40.184Z,19.50
2018-12-24T21:04:06.134Z,19.50
2018-12-24T21:06:32.121Z,19.50
2018-12-24T21:08:58.065Z,19.50
2018-12-24T21:11:24.035Z,19.50
2018-12-24T21:13:49.977Z,19.50
2018-12-24T21:16:15.918Z,19.50
2018-12-24T21:18:41.888Z,19.50
2018-12-24T21:21:07.863Z,19.50
2018-12-24T21:23:33.829Z,19.50
2018-12-24T21:25:59.794Z,19.50
2018-12-24T21:28:25.755Z,19.50
2018-12-24T21:30:51.836Z,19.50
2018-12-24T21:33:17.950Z,19.50
2018-12-24T21:35:43.925Z,19.50
2018-12-24T21:38:10.016Z,19.50
2018-12-24T21:40:36.049Z,19.50
2018-12-24T21:43:01.984Z,19.50
2018-12-24T21:45:27.951Z,19.50
2018-12-24T21:47:53.917Z,19.50
2018-12-24T21:50:19.879Z,19.50
2018-12-24T21:52:45.942Z,19.50
2018-12-24T21:55:11.889Z,19.50
2018-12-24T21:57:37.833Z,19.50
2018-12-24T22:00:03.800Z,19.60
2018-12-24T22:02:29.867Z,19.60
2018-12-24T22:04:55.813Z,19.60
2018-12-24T22:07:21.759Z,19.60
2018-12-24T22:09:47.734Z,19.60
2018-12-24T22:12:13.698Z,19.60
2018-12-24T22:14:39.751Z,19.60
2018-12-24T22:17:05.912Z,19.50
2018-12-24T22:19:32.085Z,19.50
2018-12-24T22:21:58.031Z,19.50
2018-12-24T22:24:23.986Z,19.60
2018-12-24T22:26:49.933Z,19.50
2018-12-24T22:29:15.883Z,19.50
2018-12-24T22:31:41.817Z,19.50
2018-12-24T22:34:07.771Z,19.50
2018-12-24T22:36:33.845Z,19.50
2018-12-24T22:38:59.799Z,19.40
2018-12-24T22:41:25.764Z,19.40
2018-12-24T22:43:51.724Z,19.50
2018-12-24T22:46:17.681Z,19.50
2018-12-24T22:48:43.620Z,19.40
2018-12-24T22:51:09.587Z,19.50
2018-12-24T22:53:35.646Z,19.50
2018-12-24T22:56:01.780Z,19.40
2018-12-24T22:58:27.741Z,19.40
2018-12-24T23:00:53.704Z,19.40
2018-12-24T23:03:19.670Z,19.40
2018-12-24T23:05:45.608Z,19.40
2018-12-24T23:08:11.560Z,19.40
2018-12-24T23:10:37.528Z,19.50
2018-12-24T23:13:03.486Z,19.50
2018-12-24T23:15:29.428Z,19.50
2018-12-24T23:17:55.501Z,19.50
2018-12-24T23:20:21.462Z,19.50
2018-12-24T23:22:47.423Z,19.50
2018-12-24T23:25:13.366Z,19.40
2018-12-24T23:27:39.339Z,19.50
2018-12-24T23:30:05.291Z,19.50
2018-12-24T23:32:31.252Z,19.50
2018-12-24T23:34:57.196Z,19.50
2018-12-24T23:37:23.129Z,19.50
2018-12-24T23:39:49.092Z,19.50
2018-12-24T23:42:15.051Z,19.50
2018-12-24T23:44:41.111Z,19.50
2018-12-24T23:47:07.463Z,19.50
2018-12-24T23:49:33.409Z,19.50
2018-12-24T23:51:59.365Z,19.50
2018-12-24T23:54:25.314Z,19.50
2018-12-24T23:56:51.245Z,19.50
2018-12-24T23:59:17.198Z,19.50
